createdAt,value
2022-10-11T00:00:01.377Z,22.09
2022-10-11T00:02:27.996Z,22.10
2022-10-11T00:04:54.560Z,22.09
2022-10-11T00:07:21.591Z,22.11
2022-10-11T00:09:48.120Z,22.09
2022-10-11T00:12:14.706Z,22.10
2022-10-11T00:14:41.263Z,22.09
2022-10-11T00:17:08.572Z,22.06
2022-10-11T00:19:35.119Z,22.07
2022-10-11T00:22:01.708Z,22.08
2022-10-11T00:24:28.343Z,22.13
2022-10-11T00:26:54.861Z,22.11
2022-10-11T00:29:21.390Z,22.12
2022-10-11T00:31:47.920Z,22.10
2022-10-11T00:34:17.136Z,22.12
2022-10-11T00:36:45.554Z,22.13
2022-10-11T00:39:14.381Z,22.12
2022-10-11T00:41:41.560Z,22.12
2022-10-11T00:44:22.924Z,22.11
2022-10-11T00:47:03.596Z,22.13
2022-10-11T00:49:40.298Z,22.13
2022-10-11T00:52:29.217Z,22.11
2022-10-11T00:54:57.071Z,22.11
2022-10-11T00:57:26.521Z,22.10
2022-10-11T00:59:55.272Z,22.08
2022-10-11T01:02:23.782Z,22.10
2022-10-11T01:05:01.183Z,22.09
2022-10-11T01:07:39.479Z,22.07
2022-10-11T01:10:06.231Z,22.08
2022-10-11T01:12:33.457Z,22.05
2022-10-11T01:15:11.450Z,22.08
2022-10-11T01:18:28.241Z,22.10
2022-10-11T01:21:45.750Z,22.06
2022-10-11T01:24:33.733Z,22.07
2022-10-11T01:27:29.247Z,22.07
2022-10-11T01:29:55.727Z,22.03
2022-10-11T01:32:41.568Z,22.04
2022-10-11T01:35:21.515Z,22.02
2022-10-11T01:38:11.408Z,22.04
2022-10-11T01:40:52.891Z,22.07
2022-10-11T01:43:20.656Z,22.02
2022-10-11T01:45:51.686Z,22.03
2022-10-11T01:48:18.524Z,22.01
2022-10-11T01:50:51.468Z,22.04
2022-10-11T01:53:47.531Z,22.04
2022-10-11T01:56:47.875Z,22.01
2022-10-11T01:59:40.364Z,21.97
2022-10-11T02:02:38.526Z,22.02
2022-10-11T02:05:12.359Z,22.00
2022-10-11T02:07:55.188Z,22.00
2022-10-11T02:10:32.399Z,21.99
2022-10-11T02:13:37.654Z,22.01
2022-10-11T02:16:09.405Z,21.98
2022-10-11T02:18:41.389Z,22.01
2022-10-11T02:21:12.513Z,21.97
2022-10-11T02:24:14.322Z,21.98
2022-10-11T02:26:43.542Z,21.92
2022-10-11T02:29:15.057Z,21.92
2022-10-11T02:31:43.724Z,21.93
2022-10-11T02:34:24.425Z,21.93
2022-10-11T02:37:11.962Z,21.90
2022-10-11T02:40:10.410Z,21.90
2022-10-11T02:42:43.343Z,21.88
2022-10-11T02:45:23.627Z,21.88
2022-10-11T02:47:50.426Z,21.86
2022-10-11T02:50:17.123Z,21.88
2022-10-11T02:52:43.628Z,21.87
2022-10-11T02:55:10.912Z,21.90
2022-10-11T02:57:38.411Z,21.86
2022-10-11T03:00:05.963Z,21.85
2022-10-11T03:02:32.625Z,21.85
2022-10-11T03:04:59.170Z,21.86
2022-10-11T03:07:25.916Z,21.87
2022-10-11T03:09:52.426Z,21.87
2022-10-11T03:12:18.998Z,21.81
2022-10-11T03:14:45.550Z,21.83
2022-10-11T03:17:34.977Z,21.82
2022-10-11T03:19:58.614Z,21.84
2022-10-11T03:22:25.226Z,21.80
2022-10-11T03:24:51.754Z,21.82
2022-10-11T03:27:18.276Z,21.86
2022-10-11T03:29:44.801Z,21.83
2022-10-11T03:32:11.322Z,21.83
2022-10-11T03:34:37.857Z,21.83
2022-10-11T03:37:04.368Z,21.82
2022-10-11T03:39:30.950Z,21.78
2022-10-11T03:41:57.484Z,21.82
2022-10-11T03:44:24.175Z,21.82
2022-10-11T03:46:50.708Z,21.80
2022-10-11T03:49:17.274Z,21.77
2022-10-11T03:51:43.807Z,21.78
2022-10-11T03:54:10.397Z,21.81
2022-10-11T03:56:36.974Z,21.79
2022-10-11T03:59:03.631Z,21.80
2022-10-11T04:01:30.773Z,21.76
2022-10-11T04:03:57.665Z,21.76
2022-10-11T04:06:24.284Z,21.77
2022-10-11T04:08:50.829Z,21.76
2022-10-11T04:11:17.367Z,21.75
2022-10-11T04:13:43.872Z,21.75
2022-10-11T04:16:10.417Z,21.74
2022-10-11T04:18:37.099Z,21.74
2022-10-11T04:21:03.867Z,21.76
2022-10-11T04:23:31.826Z,21.78
2022-10-11T04:25:58.369Z,21.78
2022-10-11T04:28:25.178Z,21.78
2022-10-11T04:30:52.285Z,21.79
2022-10-11T04:33:19.204Z,21.80
2022-10-11T04:35:45.718Z,21.79
2022-10-11T04:38:12.366Z,21.78
2022-10-11T04:40:39.233Z,21.79
2022-10-11T04:43:05.767Z,21.79
2022-10-11T04:45:32.315Z,21.79
2022-10-11T04:47:58.888Z,21.76
2022-10-11T04:50:25.424Z,21.78
2022-10-11T04:52:51.969Z,21.78
2022-10-11T04:55:18.564Z,21.78
2022-10-11T04:57:45.064Z,21.78
2022-10-11T05:00:12.312Z,21.76
2022-10-11T05:02:38.868Z,21.76
2022-10-11T05:05:05.882Z,21.77
2022-10-11T05:07:32.542Z,21.76
2022-10-11T05:09:59.119Z,21.75
2022-10-11T05:12:25.708Z,21.76
2022-10-11T05:14:52.433Z,21.77
2022-10-11T05:17:18.957Z,21.74
2022-10-11T05:19:45.501Z,21.75
2022-10-11T05:22:12.018Z,21.75
2022-10-11T05:24:38.548Z,21.72
2022-10-11T05:27:05.049Z,21.75
2022-10-11T05:29:31.688Z,21.74
2022-10-11T05:31:58.280Z,21.74
2022-10-11T05:34:24.801Z,21.75
2022-10-11T05:36:51.321Z,21.74
2022-10-11T05:39:17.838Z,21.73
2022-10-11T05:41:44.451Z,21.74
2022-10-11T05:44:10.992Z,21.73
2022-10-11T05:46:37.554Z,21.74
2022-10-11T05:49:04.080Z,21.75
2022-10-11T05:51:30.766Z,21.74
2022-10-11T05:53:57.300Z,21.75
2022-10-11T05:56:25.526Z,21.74
2022-10-11T05:58:52.610Z,21.75
2022-10-11T06:01:25.204Z,21.75
2022-10-11T06:03:52.372Z,21.74
2022-10-11T06:06:20.136Z,21.76
2022-10-11T06:08:47.617Z,21.78
2022-10-11T06:11:17.576Z,21.80
2022-10-11T06:13:44.384Z,21.76
2022-10-11T06:16:11.711Z,21.72
2022-10-11T06:18:38.372Z,21.77
2022-10-11T06:21:05.070Z,21.81
2022-10-11T06:23:31.735Z,21.87
2022-10-11T06:26:02.443Z,21.92
2022-10-11T06:28:29.962Z,22.08
2022-10-11T06:30:56.552Z,22.06
2022-10-11T06:33:24.057Z,22.10
2022-10-11T06:35:56.943Z,22.12
2022-10-11T06:38:23.474Z,22.15
2022-10-11T06:40:50.014Z,22.17
2022-10-11T06:43:16.576Z,22.16
2022-10-11T06:45:43.130Z,22.09
2022-10-11T06:48:09.640Z,22.09
2022-10-11T06:50:58.518Z,22.09
2022-10-11T06:53:25.282Z,22.07
2022-10-11T06:55:51.847Z,22.04
2022-10-11T06:58:18.385Z,22.05
2022-10-11T07:00:44.971Z,22.06
2022-10-11T07:03:11.512Z,22.04
2022-10-11T07:05:38.089Z,22.03
2022-10-11T07:08:04.884Z,22.03
2022-10-11T07:10:31.429Z,22.05
2022-10-11T07:12:57.932Z,22.06
2022-10-11T07:15:24.525Z,22.03
2022-10-11T07:17:51.020Z,22.00
2022-10-11T07:20:17.597Z,22.02
2022-10-11T07:22:44.123Z,22.09
2022-10-11T07:25:10.707Z,22.11
2022-10-11T07:27:37.244Z,22.16
2022-10-11T07:30:04.053Z,22.17
2022-10-11T07:32:30.940Z,22.20
2022-10-11T07:34:57.467Z,22.28
2022-10-11T07:37:24.053Z,22.27
2022-10-11T07:39:50.573Z,22.27
2022-10-11T07:42:17.458Z,22.29
2022-10-11T07:44:44.038Z,22.28
2022-10-11T07:47:11.572Z,22.31
2022-10-11T07:49:38.184Z,22.52
2022-10-11T07:52:04.982Z,22.57
2022-10-11T07:54:32.789Z,22.65
2022-10-11T07:56:59.534Z,22.71
2022-10-11T07:59:26.172Z,22.75
2022-10-11T08:01:52.841Z,22.75
2022-10-11T08:04:21.278Z,22.88
2022-10-11T08:06:51.094Z,22.99
2022-10-11T08:09:19.851Z,23.14
2022-10-11T08:11:46.397Z,23.37
2022-10-11T08:14:12.920Z,23.58
2022-10-11T08:16:40.233Z,23.60
2022-10-11T08:19:07.372Z,23.79
2022-10-11T08:21:34.813Z,24.00
2022-10-11T08:24:03.498Z,24.19
2022-10-11T08:26:30.545Z,24.35
2022-10-11T08:28:58.335Z,24.58
2022-10-11T08:31:25.028Z,24.71
2022-10-11T08:33:51.556Z,24.89
2022-10-11T08:36:18.129Z,25.15
2022-10-11T08:38:44.689Z,25.06
2022-10-11T08:41:26.234Z,24.39
2022-10-11T08:44:58.367Z,23.80
2022-10-11T08:47:28.651Z,23.53
2022-10-11T08:49:56.545Z,23.31
2022-10-11T08:52:24.555Z,23.20
2022-10-11T08:55:04.520Z,23.21
2022-10-11T08:57:35.385Z,23.20
2022-10-11T09:00:05.134Z,23.29
2022-10-11T09:03:07.947Z,23.18
2022-10-11T09:05:39.556Z,22.96
2022-10-11T09:08:25.998Z,23.35
2022-10-11T09:11:21.077Z,23.55
2022-10-11T09:14:35.365Z,23.43
2022-10-11T09:17:22.921Z,23.43
2022-10-11T09:20:01.410Z,23.44
2022-10-11T09:22:33.765Z,23.52
2022-10-11T09:25:09.485Z,24.17
2022-10-11T09:28:07.780Z,26.17
2022-10-11T09:30:40.334Z,27.19
2022-10-11T09:33:20.990Z,27.30
2022-10-11T09:35:51.401Z,27.86
2022-10-11T09:38:39.891Z,28.56
2022-10-11T09:41:26.173Z,28.72
2022-10-11T09:43:52.813Z,29.09
2022-10-11T09:46:34.238Z,28.69
2022-10-11T09:49:04.754Z,28.02
2022-10-11T09:51:31.927Z,25.71
2022-10-11T09:54:01.181Z,24.65
2022-10-11T09:56:33.463Z,23.96
2022-10-11T09:59:06.917Z,25.71
2022-10-11T10:01:33.677Z,28.36
2022-10-11T10:04:11.049Z,28.58
2022-10-11T10:06:39.045Z,28.90
2022-10-11T10:09:26.397Z,29.83
2022-10-11T10:11:57.205Z,29.75
2022-10-11T10:14:28.936Z,29.98
2022-10-11T10:17:08.545Z,29.86
2022-10-11T10:19:49.378Z,29.51
2022-10-11T10:22:29.501Z,28.94
2022-10-11T10:24:58.457Z,28.17
2022-10-11T10:27:30.595Z,26.97
2022-10-11T10:30:13.241Z,25.56
2022-10-11T10:33:06.717Z,24.70
2022-10-11T10:35:36.362Z,24.75
2022-10-11T10:38:24.095Z,25.05
2022-10-11T10:41:04.056Z,24.67
2022-10-11T10:43:35.674Z,24.32
2022-10-11T10:46:23.281Z,23.87
2022-10-11T10:49:41.165Z,23.84
2022-10-11T10:52:26.372Z,23.69
2022-10-11T10:55:28.359Z,23.47
2022-10-11T10:58:22.405Z,23.38
2022-10-11T11:00:52.484Z,23.36
2022-10-11T11:03:24.317Z,23.19
2022-10-11T11:06:09.947Z,23.02
2022-10-11T11:09:00.496Z,22.95
2022-10-11T11:12:03.909Z,22.91
2022-10-11T11:14:59.543Z,22.98
2022-10-11T11:17:51.885Z,22.89
2022-10-11T11:20:33.297Z,22.91
2022-10-11T11:23:20.683Z,22.99
2022-10-11T11:26:04.649Z,23.08
2022-10-11T11:29:09.864Z,22.94
2022-10-11T11:32:01.497Z,22.72
2022-10-11T11:34:37.846Z,22.62
2022-10-11T11:37:15.174Z,22.53
2022-10-11T11:39:46.238Z,22.52
2022-10-11T11:42:18.227Z,22.68
2022-10-11T11:44:50.285Z,22.80
2022-10-11T11:47:33.140Z,22.69
2022-10-11T11:50:03.193Z,22.65
2022-10-11T11:52:38.932Z,22.68
2022-10-11T11:55:21.579Z,22.64
2022-10-11T11:58:02.109Z,23.14
2022-10-11T12:00:48.210Z,23.09
2022-10-11T12:03:24.055Z,23.33
2022-10-11T12:06:12.008Z,24.94
2022-10-11T12:08:41.010Z,25.68
2022-10-11T12:11:41.139Z,25.83
2022-10-11T12:14:27.258Z,25.32
2022-10-11T12:17:18.743Z,25.93
2022-10-11T12:20:06.743Z,23.78
2022-10-11T12:22:33.211Z,23.46
2022-10-11T12:25:01.351Z,23.21
2022-10-11T12:27:43.887Z,23.75
2022-10-11T12:30:44.469Z,24.65
2022-10-11T12:33:31.250Z,24.13
2022-10-11T12:36:21.790Z,23.61
2022-10-11T12:39:19.987Z,23.24
2022-10-11T12:41:55.420Z,23.12
2022-10-11T12:44:27.217Z,23.09
2022-10-11T12:46:53.754Z,23.00
2022-10-11T12:49:43.323Z,23.46
2022-10-11T12:52:28.321Z,23.51
2022-10-11T12:55:19.837Z,23.90
2022-10-11T12:58:17.858Z,24.23
2022-10-11T13:01:04.796Z,24.51
2022-10-11T13:03:37.139Z,24.40
2022-10-11T13:06:18.817Z,24.54
2022-10-11T13:08:59.904Z,24.76
2022-10-11T13:11:37.170Z,24.84
2022-10-11T13:14:26.102Z,24.92
2022-10-11T13:17:06.947Z,24.99
2022-10-11T13:19:36.875Z,25.18
2022-10-11T13:22:15.298Z,25.32
2022-10-11T13:24:42.556Z,25.45
2022-10-11T13:27:20.263Z,25.40
2022-10-11T13:29:47.762Z,25.54
2022-10-11T13:32:26.284Z,25.68
2022-10-11T13:37:30.028Z,25.79
2022-10-11T13:39:57.666Z,25.85
2022-10-11T13:42:29.662Z,25.99
2022-10-11T13:44:57.204Z,25.72
2022-10-11T13:47:29.247Z,25.86
2022-10-11T13:50:10.910Z,25.98
2022-10-11T13:52:50.405Z,26.07
2022-10-11T13:55:29.623Z,26.06
2022-10-11T13:57:58.480Z,26.14
2022-10-11T14:00:29.422Z,26.08
2022-10-11T14:03:13.427Z,25.85
2022-10-11T14:05:43.223Z,25.98
2022-10-11T14:08:31.091Z,25.67
2022-10-11T14:11:02.436Z,25.08
2022-10-11T14:13:38.974Z,24.59
2022-10-11T14:16:08.712Z,24.22
2022-10-11T14:18:48.882Z,24.06
2022-10-11T14:21:48.234Z,23.92
2022-10-11T14:24:16.394Z,23.70
2022-10-11T14:26:45.836Z,23.67
2022-10-11T14:29:27.864Z,23.59
2022-10-11T14:32:03.551Z,23.42
2022-10-11T14:34:30.953Z,23.41
2022-10-11T14:36:57.528Z,23.34
2022-10-11T14:39:25.889Z,23.19
2022-10-11T14:41:52.810Z,23.09
2022-10-11T14:44:20.475Z,23.19
2022-10-11T14:46:48.982Z,23.20
2022-10-11T14:49:22.594Z,23.18
2022-10-11T14:51:50.173Z,23.09
2022-10-11T14:54:22.633Z,22.99
2022-10-11T14:56:50.917Z,23.07
2022-10-11T14:59:21.833Z,23.07
2022-10-11T15:01:51.910Z,23.03
2022-10-11T15:04:19.582Z,22.97
2022-10-11T15:06:46.350Z,22.99
2022-10-11T15:09:12.927Z,22.97
2022-10-11T15:11:39.837Z,22.96
2022-10-11T15:14:06.879Z,22.89
2022-10-11T15:16:34.381Z,22.84
2022-10-11T15:19:01.213Z,22.89
2022-10-11T15:21:29.127Z,22.85
2022-10-11T15:23:56.707Z,22.79
2022-10-11T15:26:28.539Z,22.82
2022-10-11T15:28:56.883Z,22.79
2022-10-11T15:31:23.975Z,22.68
2022-10-11T15:33:50.800Z,22.66
2022-10-11T15:36:20.426Z,22.76
2022-10-11T15:38:47.484Z,22.70
2022-10-11T15:41:15.756Z,22.63
2022-10-11T15:43:44.240Z,22.67
2022-10-11T15:46:17.452Z,22.63
2022-10-11T15:48:45.363Z,22.63
2022-10-11T15:51:12.181Z,22.60
2022-10-11T15:53:38.754Z,22.50
2022-10-11T15:56:09.122Z,22.48
2022-10-11T15:58:38.909Z,22.43
2022-10-11T16:01:09.400Z,22.48
2022-10-11T16:03:36.403Z,22.44
2022-10-11T16:06:05.558Z,22.45
2022-10-11T16:08:33.379Z,22.39
2022-10-11T16:11:00.394Z,22.42
2022-10-11T16:13:27.138Z,22.42
2022-10-11T16:15:54.107Z,22.43
2022-10-11T16:18:21.090Z,22.45
2022-10-11T16:20:51.081Z,22.42
2022-10-11T16:23:18.254Z,22.47
2022-10-11T16:25:57.046Z,22.40
2022-10-11T16:28:23.729Z,22.46
2022-10-11T16:30:50.611Z,22.45
2022-10-11T16:33:17.120Z,22.50
2022-10-11T16:35:43.738Z,22.47
2022-10-11T16:38:10.571Z,22.46
2022-10-11T16:40:38.893Z,22.45
2022-10-11T16:43:07.982Z,22.46
2022-10-11T16:45:35.903Z,22.47
2022-10-11T16:48:03.253Z,22.46
2022-10-11T16:50:29.941Z,22.44
2022-10-11T16:52:56.578Z,22.45
2022-10-11T16:55:23.389Z,22.45
2022-10-11T16:57:49.930Z,22.43
2022-10-11T17:00:16.856Z,22.43
2022-10-11T17:02:43.423Z,22.42
2022-10-11T17:05:09.965Z,22.45
2022-10-11T17:07:36.551Z,22.45
2022-10-11T17:10:04.357Z,22.39
2022-10-11T17:12:31.998Z,22.41
2022-10-11T17:14:58.532Z,22.39
2022-10-11T17:17:25.197Z,22.37
2022-10-11T17:19:51.723Z,22.33
2022-10-11T17:22:19.512Z,22.32
2022-10-11T17:24:46.366Z,22.29
2022-10-11T17:27:13.512Z,22.30
2022-10-11T17:29:40.274Z,22.30
2022-10-11T17:32:07.190Z,22.24
2022-10-11T17:34:34.532Z,22.25
2022-10-11T17:37:01.198Z,22.25
2022-10-11T17:39:27.768Z,22.25
2022-10-11T17:41:54.388Z,22.24
2022-10-11T17:44:21.716Z,22.23
2022-10-11T17:46:48.675Z,22.22
2022-10-11T17:49:15.385Z,22.21
2022-10-11T17:51:43.451Z,22.16
2022-10-11T17:54:13.035Z,22.17
2022-10-11T17:56:41.341Z,22.16
2022-10-11T17:59:11.724Z,22.14
2022-10-11T18:01:38.445Z,22.16
2022-10-11T18:04:06.155Z,22.20
2022-10-11T18:06:38.377Z,22.17
2022-10-11T18:09:05.193Z,22.19
2022-10-11T18:11:32.660Z,22.16
2022-10-11T18:13:59.335Z,22.13
2022-10-11T18:16:28.954Z,22.16
2022-10-11T18:18:57.355Z,22.17
2022-10-11T18:21:33.629Z,22.16
2022-10-11T18:24:03.089Z,22.14
2022-10-11T18:26:30.983Z,22.24
2022-10-11T18:28:58.468Z,22.30
2022-10-11T18:31:27.678Z,22.28
2022-10-11T18:33:54.966Z,22.29
2022-10-11T18:36:24.676Z,22.33
2022-10-11T18:38:56.708Z,22.33
2022-10-11T18:41:25.110Z,22.33
2022-10-11T18:43:56.322Z,22.35
2022-10-11T18:46:24.155Z,22.34
2022-10-11T18:48:52.419Z,22.34
2022-10-11T18:51:27.965Z,22.34
2022-10-11T18:53:54.973Z,22.31
2022-10-11T18:56:24.641Z,22.32
2022-10-11T18:58:53.922Z,22.31
2022-10-11T19:01:54.332Z,22.31
2022-10-11T19:04:21.423Z,22.31
2022-10-11T19:06:50.629Z,22.30
2022-10-11T19:09:21.965Z,22.32
2022-10-11T19:11:50.878Z,22.30
2022-10-11T19:14:20.165Z,22.27
2022-10-11T19:16:49.648Z,22.29
2022-10-11T19:19:17.036Z,22.26
2022-10-11T19:21:43.877Z,22.28
2022-10-11T19:24:10.615Z,22.26
2022-10-11T19:26:39.659Z,22.27
2022-10-11T19:29:09.943Z,22.29
2022-10-11T19:31:41.095Z,22.25
2022-10-11T19:34:07.752Z,22.26
2022-10-11T19:36:36.794Z,22.22
2022-10-11T19:39:05.626Z,22.23
2022-10-11T19:41:32.702Z,22.23
2022-10-11T19:43:59.585Z,22.20
2022-10-11T19:46:44.401Z,22.20
2022-10-11T19:49:17.405Z,22.21
2022-10-11T19:51:43.958Z,22.22
2022-10-11T19:54:13.795Z,22.23
2022-10-11T19:56:40.930Z,22.18
2022-10-11T19:59:07.474Z,22.19
2022-10-11T20:01:35.378Z,22.20
2022-10-11T20:04:05.890Z,22.20
2022-10-11T20:06:38.352Z,22.21
2022-10-11T20:09:29.530Z,22.21
2022-10-11T20:11:56.025Z,22.21
2022-10-11T20:14:22.655Z,22.17
2022-10-11T20:16:52.769Z,22.20
2022-10-11T20:19:19.422Z,22.16
2022-10-11T20:21:46.039Z,22.13
2022-10-11T20:24:12.887Z,22.15
2022-10-11T20:26:40.159Z,22.16
2022-10-11T20:29:06.795Z,22.16
2022-10-11T20:31:37.959Z,22.16
2022-10-11T20:34:07.067Z,22.13
2022-10-11T20:36:35.837Z,22.13
2022-10-11T20:39:02.530Z,22.11
2022-10-11T20:41:34.259Z,22.11
2022-10-11T20:44:02.042Z,22.10
2022-10-11T20:46:34.295Z,22.10
2022-10-11T20:49:03.807Z,22.11
2022-10-11T20:51:31.975Z,22.08
2022-10-11T20:53:58.848Z,22.09
2022-10-11T20:56:25.459Z,22.08
2022-10-11T20:58:53.955Z,22.08
2022-10-11T21:01:23.068Z,22.09
2022-10-11T21:03:50.382Z,22.07
2022-10-11T21:06:16.908Z,22.05
2022-10-11T21:08:43.468Z,22.05
2022-10-11T21:11:10.743Z,22.05
2022-10-11T21:13:37.652Z,22.06
2022-10-11T21:16:11.310Z,22.05
2022-10-11T21:18:38.521Z,22.12
2022-10-11T21:21:13.382Z,22.08
2022-10-11T21:23:40.882Z,22.09
2022-10-11T21:26:10.159Z,22.08
2022-10-11T21:28:37.924Z,22.06
2022-10-11T21:31:06.717Z,22.02
2022-10-11T21:33:34.449Z,21.99
2022-10-11T21:36:09.544Z,22.00
2022-10-11T21:38:36.620Z,21.96
2022-10-11T21:41:04.663Z,21.93
2022-10-11T21:43:31.509Z,21.90
2022-10-11T21:45:58.063Z,21.85
2022-10-11T21:48:24.594Z,21.83
2022-10-11T21:50:54.697Z,21.86
2022-10-11T21:53:21.507Z,21.88
2022-10-11T21:55:48.054Z,21.90
2022-10-11T21:58:14.613Z,21.87
2022-10-11T22:00:41.145Z,21.86
2022-10-11T22:03:07.938Z,21.86
2022-10-11T22:05:34.481Z,21.87
2022-10-11T22:08:00.980Z,21.82
2022-10-11T22:10:27.551Z,21.75
2022-10-11T22:12:54.122Z,21.77
2022-10-11T22:15:20.652Z,21.77
2022-10-11T22:17:47.219Z,21.77
2022-10-11T22:20:13.829Z,21.79
2022-10-11T22:22:40.379Z,21.76
2022-10-11T22:25:07.364Z,21.75
2022-10-11T22:27:33.997Z,21.78
2022-10-11T22:30:00.833Z,21.78
2022-10-11T22:32:27.376Z,21.79
2022-10-11T22:34:53.937Z,21.80
2022-10-11T22:37:20.469Z,21.79
2022-10-11T22:39:47.008Z,21.80
2022-10-11T22:42:13.536Z,21.79
2022-10-11T22:44:40.045Z,21.78
2022-10-11T22:47:06.596Z,21.77
2022-10-11T22:49:33.177Z,21.74
2022-10-11T22:51:59.795Z,21.73
2022-10-11T22:54:26.351Z,21.74
2022-10-11T22:56:52.905Z,21.73
2022-10-11T22:59:19.434Z,21.72
2022-10-11T23:01:45.997Z,21.72
2022-10-11T23:04:12.540Z,21.72
2022-10-11T23:06:39.101Z,21.72
2022-10-11T23:09:05.704Z,21.72
2022-10-11T23:11:32.229Z,21.74
2022-10-11T23:13:58.771Z,21.69
2022-10-11T23:16:25.313Z,21.69
2022-10-11T23:18:53.345Z,21.72
2022-10-11T23:21:19.958Z,21.71
2022-10-11T23:23:47.170Z,21.70
2022-10-11T23:26:16.140Z,21.69
2022-10-11T23:28:43.335Z,21.67
2022-10-11T23:31:13.487Z,21.68
2022-10-11T23:33:40.069Z,21.66
2022-10-11T23:36:12.597Z,21.65
2022-10-11T23:38:39.138Z,21.65
2022-10-11T23:41:05.720Z,21.67
2022-10-11T23:43:32.263Z,21.67
2022-10-11T23:45:58.837Z,21.66
2022-10-11T23:48:25.373Z,21.67
2022-10-11T23:50:51.967Z,21.67
2022-10-11T23:53:18.524Z,21.65
2022-10-11T23:55:45.092Z,21.65
2022-10-11T23:58:11.626Z,21.66
